Clifton, Virginia
Current Conditions -  °F | °C
As of 4:35 AM on Sunday 26 Oct 2014 (Local Time) from KHEF Reporting Station
Clear Clear  
Wind Chill: 54°   Ceiling: Unl
Heat Index: 54°   Visibility: 10mi
Dew Point: 45°   Wind: 8mph
Humidity: 72%   Direction: 270°W
Pressure: 29.73"   Gusts: NA
Location:  38.78°N, 77.39°W
Report Text: KHEF 260835Z 27007KT 10SM CLR 12/07 A2973 RMK AO1
Loading
Personal Weather Stations






























Interactive Weather Map
Tropical Storm Tracking
New forecast layout! Learn more

10-Day Weather Forecast

Advertisements
Track Severe Weather on mobile